WAKK/MKQ METAR and TAF weather

Enter ICAO airport designator
Station Type Date Time Source
WAKK METAR 2015/04/15 04:00 UTC NOAA

WAKK 150400Z 06007KT 9999 SCT017 31/24 Q1011


Station Type Date Time Source
WAKK Decoded METAR 2015/04/15 04:00 UTC NOAA

Merauke / Mopah, Indonesia (WAKK) 08-28S 140-23E 3M
Apr 15, 2015 - 12:00 AM EDT / 2015.04.15 0400 UTC
Wind: from the ENE (060 degrees) at 8 MPH (7 KT):0
Visibility: greater than 7 mile(s):0
Sky conditions: partly cloudy
Temperature: 87 F (31 C)
Heat index: 95.7 F (35.4 C):1
Dew Point: 75 F (24 C)
Relative Humidity: 66%
Pressure (altimeter): 29.85 in. Hg (1011 hPa)
ob: WAKK 150400Z 06007KT 9999 SCT017 31/24 Q1011
cycle: 4

Station Type Date Time Source
WAKK TAF 2013/03/11 12:00 UTC NOAA

TAF WAKK 111100Z 1112/1212 34006KT 9999 SCT018
BECMG 1122/1124 30012KT
TEMPO 1200/1202 7000 -RA FEW017CB
BECMG 1208/1210 29006KT


Example: see airport list